RYR6008 LPPR-LIRF
Flight info
| Callsign | RYR6008 |
|---|---|
| Flight time | N/A |
| Altitude | 37000 |
| Route | PESUL DCT RIVRO DCT BARDI DCT RIDAV M191 DIPOL N870 BCN N725 OSPOK DCT NOLVI DCT ORKUM DCT ELSAG DCT ALG DCT MINKA DCT ROMPO DCT RUXOP DCT BATOX DCT TINTO L5 VALMA |
| Aircraft | B738/M-SDE2E3FGHIRWXY/LB1 |
Departure
| Time | 2026-05-04 15:09 |
|---|---|
| Airport | Francisco de Sá Carneiro Airport (LPPR) |
Arrival
| Time | N/A |
|---|---|
| Airport | Rome–Fiumicino Leonardo da Vinci International Airport (LIRF) |
| Time | Latitude | Longitude | Altitude | Speed | Heading |
|---|---|---|---|---|---|
| 2026-05-04 14:44 | 41.23924 | -8.67321 | 232 ft | 0 kts | 123° |
| 2026-05-04 14:55 | 41.23927 | -8.67328 | 232 ft | 3 kts | 123° |
| 2026-05-04 14:56 | 41.23938 | -8.67350 | 231 ft | 3 kts | 123° |
| 2026-05-04 14:56 | 41.23949 | -8.67373 | 232 ft | 3 kts | 123° |
| 2026-05-04 14:56 | 41.23960 | -8.67393 | 232 ft | 2 kts | 123° |
| 2026-05-04 14:56 | 41.23972 | -8.67412 | 231 ft | 3 kts | 148° |
| 2026-05-04 14:57 | 41.23989 | -8.67420 | 229 ft | 4 kts | 184° |
| 2026-05-04 14:57 | 41.24006 | -8.67416 | 230 ft | 2 kts | 201° |
| 2026-05-04 14:57 | 41.24008 | -8.67415 | 230 ft | 1 kts | 201° |
| 2026-05-04 15:00 | 41.23993 | -8.67423 | 230 ft | 5 kts | 204° |
| 2026-05-04 15:01 | 41.23828 | -8.67476 | 228 ft | 18 kts | 165° |
| 2026-05-04 15:01 | 41.23694 | -8.67444 | 229 ft | 20 kts | 178° |
| 2026-05-04 15:01 | 41.23626 | -8.67516 | 229 ft | 12 kts | 253° |
| 2026-05-04 15:01 | 41.23614 | -8.67596 | 229 ft | 0 kts | 259° |
| 2026-05-04 15:07 | 41.23614 | -8.67597 | 229 ft | 1 kts | 259° |
| 2026-05-04 15:07 | 41.23608 | -8.67635 | 228 ft | 8 kts | 259° |
| 2026-05-04 15:08 | 41.23595 | -8.67734 | 228 ft | 12 kts | 268° |
| 2026-05-04 15:08 | 41.23645 | -8.67818 | 226 ft | 13 kts | 338° |
| 2026-05-04 15:08 | 41.23666 | -8.67825 | 225 ft | 2 kts | 348° |
| 2026-05-04 15:08 | 41.23780 | -8.67858 | 220 ft | 56 kts | 349° |
| 2026-05-04 15:09 | 41.24483 | -8.68041 | 208 ft | 146 kts | 348° |
| 2026-05-04 15:09 | 41.25623 | -8.68407 | 820 ft | 182 kts | 340° |
| 2026-05-04 15:09 | 41.26947 | -8.68808 | 1823 ft | 198 kts | 347° |
| 2026-05-04 15:10 | 41.29466 | -8.69403 | 4450 ft | 182 kts | 344° |
| 2026-05-04 15:10 | 41.30780 | -8.69764 | 4866 ft | 207 kts | 345° |
| 2026-05-04 15:10 | 41.34022 | -8.70578 | 5446 ft | 258 kts | 346° |
| 2026-05-04 15:11 | 41.35796 | -8.71056 | 6256 ft | 261 kts | 343° |
| 2026-05-04 15:11 | 41.37588 | -8.71558 | 7052 ft | 266 kts | 346° |
| 2026-05-04 15:11 | 41.39436 | -8.71833 | 7856 ft | 273 kts | 3° |
| 2026-05-04 15:11 | 41.41263 | -8.71048 | 8589 ft | 284 kts | 29° |
| 2026-05-04 15:12 | 41.42670 | -8.69152 | 9352 ft | 295 kts | 57° |
| 2026-05-04 15:12 | 41.43428 | -8.66599 | 10122 ft | 301 kts | 76° |
| 2026-05-04 15:12 | 41.43853 | -8.63805 | 10562 ft | 318 kts | 82° |
| 2026-05-04 15:12 | 41.43673 | -8.60780 | 10720 ft | 342 kts | 109° |
| 2026-05-04 15:13 | 41.42418 | -8.58034 | 10986 ft | 356 kts | 138° |
| 2026-05-04 15:13 | 41.40412 | -8.56067 | 11560 ft | 362 kts | 149° |
| 2026-05-04 15:13 | 41.38302 | -8.54280 | 12235 ft | 366 kts | 150° |
| 2026-05-04 15:13 | 41.36129 | -8.52469 | 12993 ft | 370 kts | 150° |
| 2026-05-04 15:14 | 41.33938 | -8.50634 | 13731 ft | 375 kts | 150° |
| 2026-05-04 15:14 | 41.31714 | -8.48752 | 14375 ft | 381 kts | 150° |
| 2026-05-04 15:14 | 41.29475 | -8.46841 | 15108 ft | 384 kts | 150° |
| 2026-05-04 15:14 | 41.27220 | -8.44902 | 15838 ft | 388 kts | 149° |
| 2026-05-04 15:15 | 41.25120 | -8.42565 | 16472 ft | 399 kts | 135° |
| 2026-05-04 15:15 | 41.23489 | -8.39547 | 17144 ft | 407 kts | 121° |
| 2026-05-04 15:15 | 41.22324 | -8.36129 | 17823 ft | 413 kts | 113° |
| 2026-05-04 15:16 | 41.20204 | -8.28918 | 18964 ft | 425 kts | 113° |
| 2026-05-04 15:16 | 41.19130 | -8.25232 | 19549 ft | 428 kts | 113° |
| 2026-05-04 15:16 | 41.16941 | -8.17826 | 20610 ft | 437 kts | 114° |
| 2026-05-04 15:17 | 41.15801 | -8.14020 | 21198 ft | 440 kts | 114° |
| 2026-05-04 15:17 | 41.13515 | -8.06449 | 22292 ft | 448 kts | 114° |
| 2026-05-04 15:17 | 41.12346 | -8.02594 | 22814 ft | 452 kts | 115° |
| 2026-05-04 15:18 | 41.11165 | -7.98707 | 23326 ft | 456 kts | 115° |
| 2026-05-04 15:18 | 41.09974 | -7.94792 | 23781 ft | 460 kts | 115° |
| 2026-05-04 15:18 | 41.08769 | -7.90837 | 24213 ft | 464 kts | 115° |
| 2026-05-04 15:19 | 41.06330 | -7.82847 | 25064 ft | 471 kts | 115° |
| 2026-05-04 15:19 | 41.05099 | -7.78819 | 25507 ft | 472 kts | 115° |
| 2026-05-04 15:19 | 41.02612 | -7.70705 | 26274 ft | 479 kts | 115° |
| 2026-05-04 15:20 | 41.01351 | -7.66604 | 26655 ft | 482 kts | 115° |
| 2026-05-04 15:20 | 41.00085 | -7.62490 | 27065 ft | 484 kts | 115° |
| 2026-05-04 15:20 | 40.98807 | -7.58342 | 27428 ft | 487 kts | 115° |
| 2026-05-04 15:20 | 40.97539 | -7.54236 | 27746 ft | 490 kts | 115° |
| 2026-05-04 15:21 | 40.96245 | -7.50050 | 28088 ft | 493 kts | 115° |
| 2026-05-04 15:21 | 40.94939 | -7.45833 | 28459 ft | 495 kts | 115° |
| 2026-05-04 15:21 | 40.92309 | -7.37357 | 29123 ft | 501 kts | 115° |
| 2026-05-04 15:22 | 40.90979 | -7.33085 | 29433 ft | 503 kts | 115° |
| 2026-05-04 15:22 | 40.89641 | -7.28788 | 29754 ft | 506 kts | 115° |
| 2026-05-04 15:22 | 40.86944 | -7.20155 | 30316 ft | 510 kts | 115° |
| 2026-05-04 15:23 | 40.85589 | -7.15825 | 30665 ft | 509 kts | 115° |
| 2026-05-04 15:23 | 40.84237 | -7.11511 | 31052 ft | 508 kts | 116° |
| 2026-05-04 15:23 | 40.82888 | -7.07212 | 31460 ft | 506 kts | 116° |
| 2026-05-04 15:23 | 40.81536 | -7.02915 | 31727 ft | 508 kts | 116° |
| 2026-05-04 15:24 | 40.78814 | -6.94287 | 32341 ft | 509 kts | 116° |
| 2026-05-04 15:24 | 40.76096 | -6.85693 | 33056 ft | 507 kts | 116° |
| 2026-05-04 15:25 | 40.74732 | -6.81391 | 33351 ft | 507 kts | 116° |
| 2026-05-04 15:25 | 40.73388 | -6.77160 | 33673 ft | 507 kts | 116° |
| 2026-05-04 15:25 | 40.72023 | -6.72869 | 34011 ft | 506 kts | 116° |
| 2026-05-04 15:26 | 40.69292 | -6.64302 | 34565 ft | 505 kts | 116° |
| 2026-05-04 15:26 | 40.67930 | -6.60043 | 34845 ft | 504 kts | 116° |
| 2026-05-04 15:26 | 40.65205 | -6.51533 | 35371 ft | 504 kts | 116° |
| 2026-05-04 15:27 | 40.63842 | -6.47290 | 35633 ft | 503 kts | 116° |
| 2026-05-04 15:27 | 40.61136 | -6.38876 | 36161 ft | 501 kts | 116° |
| 2026-05-04 15:28 | 40.58546 | -6.30354 | 36652 ft | 503 kts | 109° |
| 2026-05-04 15:28 | 40.57770 | -6.25848 | 36874 ft | 506 kts | 99° |
| 2026-05-04 15:29 | 40.56543 | -6.11982 | 36954 ft | 508 kts | 98° |
| 2026-05-04 15:30 | 40.53445 | -5.80035 | 36959 ft | 502 kts | 99° |
| 2026-05-04 15:31 | 40.52070 | -5.66377 | 36957 ft | 502 kts | 99° |
| 2026-05-04 15:32 | 40.49894 | -5.45098 | 36968 ft | 504 kts | 99° |
| 2026-05-04 15:34 | 40.47517 | -5.22279 | 36965 ft | 506 kts | 100° |
| 2026-05-04 15:34 | 40.46059 | -5.08496 | 36958 ft | 508 kts | 100° |
| 2026-05-04 15:35 | 40.44585 | -4.94720 | 36966 ft | 507 kts | 100° |
| 2026-05-04 15:36 | 40.43103 | -4.81006 | 36946 ft | 507 kts | 100° |
| 2026-05-04 15:36 | 40.42290 | -4.71816 | 36935 ft | 508 kts | 91° |
| 2026-05-04 15:37 | 40.43199 | -4.62638 | 36946 ft | 508 kts | 74° |
| 2026-05-04 15:37 | 40.45738 | -4.54000 | 36958 ft | 506 kts | 66° |
| 2026-05-04 15:38 | 40.48503 | -4.45487 | 36938 ft | 507 kts | 66° |
| 2026-05-04 15:38 | 40.51224 | -4.36938 | 36965 ft | 506 kts | 66° |
| 2026-05-04 15:39 | 40.53873 | -4.28431 | 36939 ft | 507 kts | 67° |
| 2026-05-04 15:40 | 40.57847 | -4.15541 | 36955 ft | 506 kts | 67° |
| 2026-05-04 15:40 | 40.60487 | -4.06956 | 36968 ft | 506 kts | 67° |
| 2026-05-04 15:41 | 40.63127 | -3.98352 | 36967 ft | 507 kts | 67° |
| 2026-05-04 15:41 | 40.65765 | -3.89726 | 36958 ft | 507 kts | 67° |
| 2026-05-04 15:42 | 40.68381 | -3.81146 | 36973 ft | 508 kts | 68° |
| 2026-05-04 15:42 | 40.71005 | -3.72509 | 36971 ft | 508 kts | 68° |
| 2026-05-04 15:43 | 40.73623 | -3.63864 | 36956 ft | 508 kts | 68° |
| 2026-05-04 15:43 | 40.76241 | -3.55189 | 36964 ft | 508 kts | 68° |
| 2026-05-04 15:44 | 40.78849 | -3.46521 | 36960 ft | 508 kts | 68° |
| 2026-05-04 15:44 | 40.81455 | -3.37830 | 36943 ft | 508 kts | 68° |
| 2026-05-04 15:45 | 40.84052 | -3.29144 | 36942 ft | 508 kts | 68° |
| 2026-05-04 15:45 | 40.86383 | -3.20335 | 36954 ft | 507 kts | 75° |
| 2026-05-04 15:46 | 40.88128 | -3.11318 | 36944 ft | 507 kts | 77° |
| 2026-05-04 15:46 | 40.89821 | -3.02276 | 36943 ft | 506 kts | 76° |
| 2026-05-04 15:47 | 40.91562 | -2.93260 | 36949 ft | 506 kts | 76° |
| 2026-05-04 15:47 | 40.93313 | -2.84303 | 36958 ft | 506 kts | 76° |
| 2026-05-04 15:48 | 40.95068 | -2.75282 | 36952 ft | 505 kts | 76° |
| 2026-05-04 15:48 | 40.97679 | -2.61752 | 36959 ft | 506 kts | 76° |
| 2026-05-04 15:49 | 40.99410 | -2.52721 | 36959 ft | 506 kts | 76° |
| 2026-05-04 15:49 | 41.01133 | -2.43673 | 36964 ft | 506 kts | 77° |
| 2026-05-04 15:50 | 41.02841 | -2.34680 | 36962 ft | 507 kts | 77° |
| 2026-05-04 15:50 | 41.04559 | -2.25604 | 36960 ft | 507 kts | 77° |
| 2026-05-04 15:51 | 41.06275 | -2.16511 | 36967 ft | 508 kts | 77° |
| 2026-05-04 15:51 | 41.07970 | -2.07481 | 36959 ft | 508 kts | 77° |
| 2026-05-04 15:52 | 41.09667 | -1.98383 | 36971 ft | 508 kts | 77° |
| 2026-05-04 15:52 | 41.11353 | -1.89287 | 36964 ft | 508 kts | 77° |
| 2026-05-04 15:53 | 41.13036 | -1.80166 | 36967 ft | 508 kts | 77° |
| 2026-05-04 15:53 | 41.14711 | -1.71048 | 36966 ft | 509 kts | 78° |
| 2026-05-04 15:54 | 41.16371 | -1.61971 | 36951 ft | 509 kts | 78° |
| 2026-05-04 15:54 | 41.18041 | -1.52791 | 36967 ft | 509 kts | 78° |
| 2026-05-04 15:55 | 41.19692 | -1.43683 | 36954 ft | 509 kts | 78° |
| 2026-05-04 15:55 | 41.21334 | -1.34573 | 36957 ft | 507 kts | 78° |
| 2026-05-04 15:56 | 41.22968 | -1.25472 | 36960 ft | 506 kts | 78° |
| 2026-05-04 15:56 | 41.24600 | -1.16338 | 36956 ft | 505 kts | 78° |
| 2026-05-04 15:57 | 41.26205 | -1.07308 | 36956 ft | 504 kts | 78° |
| 2026-05-04 15:57 | 41.27804 | -0.98269 | 36951 ft | 503 kts | 78° |
| 2026-05-04 15:58 | 41.29397 | -0.89217 | 36950 ft | 502 kts | 79° |
| 2026-05-04 15:58 | 41.30985 | -0.80151 | 36942 ft | 502 kts | 79° |
| 2026-05-04 15:59 | 41.32554 | -0.71146 | 36948 ft | 501 kts | 79° |
| 2026-05-04 15:59 | 41.34128 | -0.62072 | 36946 ft | 501 kts | 79° |
| 2026-05-04 16:00 | 41.35440 | -0.52990 | 36934 ft | 498 kts | 89° |
| 2026-05-04 16:00 | 41.35447 | -0.43815 | 36935 ft | 496 kts | 95° |
| 2026-05-04 16:01 | 41.35282 | -0.34637 | 36939 ft | 498 kts | 95° |
| 2026-05-04 16:01 | 41.35165 | -0.25432 | 36937 ft | 499 kts | 95° |
| 2026-05-04 16:02 | 41.35081 | -0.16204 | 36931 ft | 501 kts | 95° |
| 2026-05-04 16:03 | 41.34949 | -0.02232 | 36917 ft | 503 kts | 95° |
| 2026-05-04 16:03 | 41.34847 | 0.07066 | 36916 ft | 503 kts | 95° |
| 2026-05-04 16:04 | 41.34738 | 0.16384 | 36912 ft | 503 kts | 95° |
| 2026-05-04 16:04 | 41.34559 | 0.30347 | 36902 ft | 503 kts | 95° |
| 2026-05-04 16:05 | 41.34429 | 0.39658 | 36900 ft | 502 kts | 95° |
| 2026-05-04 16:06 | 41.34223 | 0.53555 | 36898 ft | 502 kts | 95° |
| 2026-05-04 16:07 | 41.33920 | 0.72075 | 36890 ft | 501 kts | 95° |
| 2026-05-04 16:08 | 41.33588 | 0.90620 | 36905 ft | 500 kts | 95° |
| 2026-05-04 16:09 | 41.33137 | 1.13706 | 36914 ft | 498 kts | 96° |
| 2026-05-04 16:10 | 41.32738 | 1.32102 | 36921 ft | 497 kts | 96° |
| 2026-05-04 16:11 | 41.32316 | 1.50437 | 36907 ft | 497 kts | 96° |
| 2026-05-04 16:12 | 41.31626 | 1.77961 | 36929 ft | 496 kts | 96° |
| 2026-05-04 16:13 | 41.31126 | 1.96316 | 36935 ft | 497 kts | 96° |
| 2026-05-04 16:14 | 41.30224 | 2.14580 | 36938 ft | 489 kts | 107° |
| 2026-05-04 16:16 | 41.26465 | 2.36561 | 36932 ft | 489 kts | 108° |
| 2026-05-04 16:17 | 41.22767 | 2.58624 | 36913 ft | 490 kts | 108° |
| 2026-05-04 16:18 | 41.19786 | 2.76276 | 36914 ft | 489 kts | 108° |
| 2026-05-04 16:19 | 41.16022 | 2.98295 | 36907 ft | 489 kts | 108° |
| 2026-05-04 16:20 | 41.12477 | 3.18788 | 36908 ft | 488 kts | 108° |
| 2026-05-04 16:22 | 41.08650 | 3.40667 | 36905 ft | 488 kts | 108° |
| 2026-05-04 16:23 | 41.03999 | 3.66895 | 36906 ft | 486 kts | 109° |
| 2026-05-04 16:25 | 40.99307 | 3.92969 | 36912 ft | 485 kts | 109° |
| 2026-05-04 16:26 | 40.93741 | 4.23403 | 36919 ft | 485 kts | 109° |
| 2026-05-04 16:28 | 40.89733 | 4.45040 | 36921 ft | 485 kts | 109° |
| 2026-05-04 16:29 | 40.84715 | 4.75524 | 36931 ft | 489 kts | 101° |
| 2026-05-04 16:31 | 40.82809 | 4.97790 | 36935 ft | 488 kts | 101° |
| 2026-05-04 16:32 | 40.80266 | 5.24409 | 36934 ft | 486 kts | 101° |
| 2026-05-04 16:33 | 40.78545 | 5.42103 | 36939 ft | 486 kts | 102° |
| 2026-05-04 16:34 | 40.77236 | 5.55363 | 36958 ft | 485 kts | 102° |
| 2026-05-04 16:35 | 40.74579 | 5.81811 | 36959 ft | 486 kts | 101° |
| 2026-05-04 16:36 | 40.73225 | 5.95078 | 36960 ft | 487 kts | 101° |
| 2026-05-04 16:37 | 40.71854 | 6.08292 | 36963 ft | 487 kts | 102° |
| 2026-05-04 16:38 | 40.69996 | 6.25977 | 36961 ft | 487 kts | 101° |
| 2026-05-04 16:39 | 40.67636 | 6.48079 | 36966 ft | 487 kts | 101° |
| 2026-05-04 16:40 | 40.65726 | 6.65676 | 36968 ft | 486 kts | 101° |
| 2026-05-04 16:41 | 40.63295 | 6.87706 | 36978 ft | 486 kts | 101° |
| 2026-05-04 16:43 | 40.60830 | 7.09652 | 36988 ft | 485 kts | 101° |
| 2026-05-04 16:43 | 40.59329 | 7.22837 | 36990 ft | 485 kts | 101° |
| 2026-05-04 16:45 | 40.56505 | 7.49209 | 36990 ft | 487 kts | 92° |
| 2026-05-04 16:46 | 40.58385 | 7.71387 | 37001 ft | 488 kts | 84° |
| 2026-05-04 16:47 | 40.59894 | 7.89088 | 37012 ft | 488 kts | 84° |
| 2026-05-04 16:48 | 40.61374 | 8.06840 | 37018 ft | 488 kts | 84° |
| 2026-05-04 16:49 | 40.63026 | 8.24583 | 37017 ft | 488 kts | 76° |
| 2026-05-04 16:50 | 40.65358 | 8.32955 | 37028 ft | 487 kts | 65° |
| 2026-05-04 16:50 | 40.68041 | 8.41157 | 37024 ft | 488 kts | 65° |
| 2026-05-04 16:51 | 40.71981 | 8.53540 | 37025 ft | 489 kts | 66° |
| 2026-05-04 16:52 | 40.77147 | 8.70150 | 37038 ft | 490 kts | 66° |
| 2026-05-04 16:53 | 40.81003 | 8.82593 | 37041 ft | 490 kts | 66° |
| 2026-05-04 16:54 | 40.86169 | 8.99271 | 37047 ft | 491 kts | 66° |
| 2026-05-04 16:55 | 40.93902 | 9.24379 | 37036 ft | 492 kts | 66° |
| 2026-05-04 16:56 | 41.00283 | 9.45289 | 37027 ft | 490 kts | 66° |
| 2026-05-04 16:57 | 41.04089 | 9.57841 | 37039 ft | 487 kts | 66° |
| 2026-05-04 16:58 | 41.09097 | 9.74441 | 37032 ft | 486 kts | 65° |
| 2026-05-04 17:00 | 41.16475 | 9.99434 | 37053 ft | 484 kts | 65° |
| 2026-05-04 17:01 | 41.22676 | 10.20346 | 36620 ft | 497 kts | 65° |
| 2026-05-04 17:01 | 41.25174 | 10.28809 | 35462 ft | 494 kts | 65° |
| 2026-05-04 17:02 | 41.27686 | 10.37354 | 34074 ft | 496 kts | 65° |
| 2026-05-04 17:02 | 41.30195 | 10.45909 | 32455 ft | 497 kts | 65° |
| 2026-05-04 17:03 | 41.31451 | 10.50202 | 31634 ft | 498 kts | 66° |
| 2026-05-04 17:03 | 41.32704 | 10.54493 | 30821 ft | 498 kts | 66° |
| 2026-05-04 17:03 | 41.35184 | 10.63009 | 29359 ft | 491 kts | 66° |
| 2026-05-04 17:04 | 41.37613 | 10.71382 | 28130 ft | 478 kts | 66° |
| 2026-05-04 17:04 | 41.39973 | 10.79537 | 26925 ft | 466 kts | 66° |
| 2026-05-04 17:05 | 41.42274 | 10.87507 | 25751 ft | 456 kts | 67° |
| 2026-05-04 17:05 | 41.44522 | 10.95319 | 24607 ft | 446 kts | 67° |
| 2026-05-04 17:06 | 41.46718 | 11.02974 | 23441 ft | 438 kts | 68° |
| 2026-05-04 17:06 | 41.47801 | 11.06756 | 22783 ft | 434 kts | 68° |
| 2026-05-04 17:07 | 41.49540 | 11.12901 | 22092 ft | 420 kts | 68° |
| 2026-05-04 17:07 | 41.50216 | 11.15306 | 21760 ft | 417 kts | 68° |
| 2026-05-04 17:07 | 41.51571 | 11.20122 | 20993 ft | 412 kts | 69° |
| 2026-05-04 17:07 | 41.52571 | 11.23691 | 20435 ft | 409 kts | 69° |
| 2026-05-04 17:08 | 41.53561 | 11.27232 | 19880 ft | 406 kts | 69° |
| 2026-05-04 17:08 | 41.55516 | 11.34223 | 19048 ft | 393 kts | 69° |
| 2026-05-04 17:08 | 41.56460 | 11.37603 | 18835 ft | 382 kts | 69° |
| 2026-05-04 17:09 | 41.57373 | 11.40879 | 18658 ft | 371 kts | 69° |
| 2026-05-04 17:09 | 41.58267 | 11.44078 | 18316 ft | 366 kts | 69° |
| 2026-05-04 17:09 | 41.59164 | 11.47254 | 17867 ft | 364 kts | 69° |
| 2026-05-04 17:10 | 41.60940 | 11.53535 | 17008 ft | 358 kts | 69° |
| 2026-05-04 17:10 | 41.63537 | 11.62756 | 15771 ft | 351 kts | 69° |
| 2026-05-04 17:11 | 41.64393 | 11.65806 | 15364 ft | 349 kts | 69° |
| 2026-05-04 17:11 | 41.65242 | 11.68834 | 14957 ft | 347 kts | 69° |
| 2026-05-04 17:11 | 41.66925 | 11.74851 | 14151 ft | 343 kts | 69° |
| 2026-05-04 17:12 | 41.67762 | 11.77845 | 13733 ft | 342 kts | 69° |
| 2026-05-04 17:12 | 41.69385 | 11.83665 | 13265 ft | 326 kts | 69° |
| 2026-05-04 17:13 | 41.71662 | 11.91863 | 12804 ft | 304 kts | 69° |
| 2026-05-04 17:14 | 41.74125 | 11.99547 | 12100 ft | 298 kts | 46° |
| 2026-05-04 17:14 | 41.75771 | 12.01148 | 11855 ft | 291 kts | 21° |
| 2026-05-04 17:14 | 41.79663 | 12.01309 | 11370 ft | 280 kts | 344° |
| 2026-05-04 17:15 | 41.81522 | 12.00556 | 11189 ft | 277 kts | 341° |
| 2026-05-04 17:15 | 41.85146 | 11.98961 | 10698 ft | 271 kts | 341° |
| 2026-05-04 17:16 | 41.88691 | 11.97418 | 10228 ft | 267 kts | 341° |
| 2026-05-04 17:16 | 41.93961 | 11.95161 | 9464 ft | 263 kts | 342° |
| 2026-05-04 17:17 | 41.95703 | 11.94420 | 9254 ft | 262 kts | 342° |
| 2026-05-04 17:17 | 42.00872 | 11.92222 | 8818 ft | 261 kts | 342° |
| 2026-05-04 17:18 | 42.02618 | 11.91479 | 8439 ft | 265 kts | 342° |
| 2026-05-04 17:18 | 42.06151 | 11.89975 | 7816 ft | 266 kts | 342° |
| 2026-05-04 17:19 | 42.09603 | 11.88504 | 7476 ft | 256 kts | 342° |
| 2026-05-04 17:19 | 42.12947 | 11.89090 | 6997 ft | 250 kts | 40° |
| 2026-05-04 17:20 | 42.14314 | 11.93100 | 6481 ft | 240 kts | 94° |
| 2026-05-04 17:20 | 42.13497 | 11.97365 | 6014 ft | 235 kts | 110° |
| 2026-05-04 17:20 | 42.12974 | 11.99445 | 5840 ft | 230 kts | 110° |
| 2026-05-04 17:21 | 42.12021 | 12.03299 | 5690 ft | 202 kts | 112° |
| 2026-05-04 17:21 | 42.10422 | 12.06084 | 5317 ft | 185 kts | 134° |
| 2026-05-04 17:22 | 42.09547 | 12.07365 | 5017 ft | 185 kts | 133° |
| 2026-05-04 17:22 | 42.08675 | 12.08643 | 4744 ft | 183 kts | 133° |
| 2026-05-04 17:23 | 42.06114 | 12.12390 | 3899 ft | 183 kts | 134° |
| 2026-05-04 17:23 | 42.05255 | 12.13647 | 3653 ft | 181 kts | 134° |
| 2026-05-04 17:23 | 42.03549 | 12.16152 | 3136 ft | 182 kts | 134° |
| 2026-05-04 17:24 | 42.02696 | 12.17398 | 2908 ft | 180 kts | 134° |